Other Surface Observations
Issued by NWS Missoula, MT

Home | Current Version | Previous Version | Text Only | Print | Product List | Glossary On
Versions: 1 2 3 4 5 6 7 8 9 10 11 12 13 14 15 16 17 18 19 20 21 22 23 24 25 26 27 28 29 30 31 32 33 34 35 36 37 38 39 40 41 42 43 44 45 46 47 48 49 50
000
SXUS55 KMSO 301903
OSOMSO
MONTANA AWOS SUMMARY
NATIONAL WEATHER SERVICE MISSOULA MT
103 PM MDT FRI SEP 30 2016

Montana AWOS Reports

LAUREL      |K6S8 301855Z AUTO 19005KT 40SM 25/07 A3004 RMK AO1 T02500072
TWIN BRIDGES|K7S1 301855Z AUTO 18006KT 4SM HZ 21/07 A3012 RMK AO1 T02060072
ROUNDUP     |KRPX 301855Z AUTO 00000KT 40SM 26/08 A2993 RMK AO1 T02560078
SCOBEY      |K9S2 301855Z AUTO 11006KT 40SM 23/09 A2996 RMK AO1 T02330094
EKALAKA     |K97M 301855Z AUTO 12005KT 40SM 24/10 A3001 RMK AO1 T02390100
PLAINS      |KS34 301855Z AUTO 00000KT 10SM 23/09 A2999 RMK AO1 T02280089




USA.gov is the U.S. government's official web portal to all federal, state and local government web resources and services.